Time;durP1;ratioP1;P1;durP2;ratioP2;P2;SDS_P1;SDS_P2;PMS_P1;PMS_P2;Temp;Humidity;BMP_temperature;BMP_pressure;BME280_temperature;BME280_humidity;BME280_pressure;Samples;Min_cycle;Max_cycle;Signal;HPM_P1;HPM_P2
2024/04/11 14:28:00;;;;;;;10.00;4.30;;;;;;;19.56;52.44;99661.95;106401;1279;612319;-88
2024/04/11 14:30:33;;;;;;;11.80;4.20;;;;;;;19.70;51.72;99657.30;104950;1264;106139;-89
2024/04/11 14:33:13;;;;;;;8.10;3.60;;;;;;;19.70;51.63;99655.30;105229;1271;61138;-91
2024/04/11 14:38:32;;;;;;;9.20;3.80;;;;;;;19.71;51.53;99651.24;105879;1254;74870;-88
2024/04/11 14:40:58;;;;;;;11.00;4.50;;;;;;;19.72;51.57;99651.39;105833;1254;72880;-87
2024/04/11 14:43:30;;;;;;;12.00;4.60;;;;;;;19.73;51.79;99650.91;105658;1257;61108;-87
2024/04/11 14:45:57;;;;;;;8.10;5.40;;;;;;;19.76;51.46;99649.02;106243;1253;61118;-87
2024/04/11 14:48:33;;;;;;;11.90;5.50;;;;;;;19.78;51.18;99646.52;105640;1255;61236;-86
2024/04/11 14:51:08;;;;;;;13.50;7.50;;;;;;;19.78;51.23;99648.45;105714;1260;75502;-86
2024/04/11 14:53:38;;;;;;;7.60;6.70;;;;;;;19.78;51.24;99643.59;105696;1260;73818;-88
2024/04/11 14:56:17;;;;;;;9.30;6.30;;;;;;;19.78;51.29;99644.65;105863;1260;61181;-86
2024/04/11 14:58:53;;;;;;;13.60;6.00;;;;;;;19.78;51.01;99640.66;106839;1253;61213;-87
2024/04/11 15:02:06;;;;;;;10.00;5.90;;;;;;;19.77;51.26;99640.17;106563;1257;72987;-88
2024/04/11 15:04:05;;;;;;;10.50;6.20;;;;;;;19.77;51.18;99640.04;106120;1254;74357;-87
2024/04/11 15:06:36;;;;;;;6.20;5.50;;;;;;;19.78;51.28;99638.13;106125;1254;61171;-87
2024/04/11 15:09:26;;;;;;;6.20;5.60;;;;;;;19.78;51.04;99639.61;106241;1254;61108;-87
2024/04/11 15:11:53;;;;;;;10.20;5.50;;;;;;;19.75;51.07;99640.35;106248;1254;61163;-87
2024/04/11 15:14:23;;;;;;;11.70;5.80;;;;;;;19.69;51.40;99637.98;106242;1254;74067;-87
2024/04/11 15:17:00;;;;;;;7.90;5.60;;;;;;;19.62;51.56;99636.25;106105;1260;75332;-87
2024/04/11 15:19:33;;;;;;;16.50;5.90;;;;;;;19.54;51.66;99635.84;106292;1260;73870;-87
2024/04/11 15:22:00;;;;;;;10.90;6.00;;;;;;;19.48;51.71;99636.66;106184;1262;61176;-86
2024/04/11 15:24:26;;;;;;;11.70;6.30;;;;;;;19.43;51.74;99641.52;105867;1263;61153;-87
2024/04/11 15:26:54;;;;;;;15.70;5.50;;;;;;;19.36;51.85;99638.80;106107;1254;61146;-89
2024/04/11 15:29:29;;;;;;;9.60;5.90;;;;;;;19.32;52.15;99635.75;106058;1254;75111;-88
2024/04/11 15:32:22;;;;;;;11.60;6.00;;;;;;;19.29;52.29;99636.73;106157;1260;71866;-89
2024/04/11 15:34:54;;;;;;;10.10;5.30;;;;;;;19.26;52.53;99632.39;106577;1254;61176;-87
2024/04/11 15:37:28;;;;;;;13.10;5.60;;;;;;;19.26;52.60;99635.91;106221;1255;60985;-86
2024/04/11 15:40:00;;;;;;;12.90;5.50;;;;;;;19.25;52.60;99635.02;106746;1260;71622;-89
2024/04/11 15:42:33;;;;;;;9.60;5.50;;;;;;;19.29;52.47;99637.10;106426;1254;74138;-88
2024/04/11 15:45:05;;;;;;;10.50;4.80;;;;;;;19.35;52.32;99633.99;108345;1262;72540;-88
2024/04/11 15:47:35;;;;;;;10.20;5.00;;;;;;;19.45;52.43;99633.49;108364;1254;61098;-90
2024/04/11 15:50:05;;;;;;;7.70;3.90;;;;;;;19.58;52.07;99634.78;105869;1263;61211;-88
2024/04/11 15:52:34;;;;;;;11.10;5.90;;;;;;;19.74;51.86;99634.08;105949;1255;73834;-90
2024/04/11 15:55:09;;;;;;;8.70;4.30;;;;;;;19.91;51.82;99630.97;105933;1254;74204;-88
2024/04/11 15:57:38;;;;;;;8.10;4.20;;;;;;;20.11;51.41;99628.34;105949;1260;72579;-89
2024/04/11 16:00:26;;;;;;;6.60;4.20;;;;;;;20.29;50.94;99624.34;106088;1257;61250;-88
2024/04/11 16:02:53;;;;;;;5.10;3.90;;;;;;;20.44;50.15;99623.55;106209;1254;61260;-89
2024/04/11 16:05:27;;;;;;;5.90;3.50;;;;;;;20.52;49.86;99620.77;105837;1254;72183;-89
2024/04/11 16:08:09;;;;;;;9.80;4.00;;;;;;;20.56;49.68;99619.48;105697;1260;74012;-90
2024/04/11 16:10:36;;;;;;;11.90;3.00;;;;;;;20.57;49.60;99616.50;105867;1254;71045;-89
2024/04/11 16:13:12;;;;;;;4.90;3.30;;;;;;;20.56;49.52;99618.06;105865;1257;60956;-88
2024/04/11 16:15:42;;;;;;;8.80;3.70;;;;;;;20.51;49.77;99620.33;107122;1254;60993;-89
2024/04/11 16:18:20;;;;;;;10.60;3.80;;;;;;;20.46;49.81;99615.49;108577;1254;71419;-89
2024/04/11 16:20:49;;;;;;;7.10;3.60;;;;;;;20.42;49.90;99616.25;106647;1257;76932;-88
2024/04/11 16:23:19;;;;;;;10.10;3.80;;;;;;;20.38;49.85;99616.96;105874;1253;72831;-89
2024/04/11 16:25:51;;;;;;;6.60;3.80;;;;;;;20.35;50.02;99616.92;105925;1254;61185;-89
2024/04/11 16:28:17;;;;;;;10.10;3.70;;;;;;;20.27;50.02;99615.78;105813;1254;61020;-90
2024/04/11 16:33:34;;;;;;;5.20;3.70;;;;;;;20.03;50.53;99614.84;107090;1254;75716;-89
2024/04/11 16:36:03;;;;;;;10.40;4.10;;;;;;;19.89;50.94;99616.45;105931;1260;72968;-89
2024/04/11 16:41:20;;;;;;;15.50;4.20;;;;;;;19.58;51.50;99616.42;105943;1254;61128;-87
2024/04/11 16:43:52;;;;;;;6.10;4.10;;;;;;;19.43;51.96;99617.15;105982;1259;73765;-90
2024/04/11 16:46:26;;;;;;;7.30;3.70;;;;;;;19.27;52.17;99620.70;107564;1253;75274;-89
2024/04/11 16:48:53;;;;;;;5.30;4.10;;;;;;;19.13;52.52;99615.00;108513;1253;71754;-85
2024/04/11 16:51:25;;;;;;;11.00;3.90;;;;;;;19.01;53.01;99617.13;108970;1254;59239;-87
2024/04/11 16:54:18;;;;;;;12.00;4.50;;;;;;;18.88;53.34;99610.63;109487;1254;60207;-88
2024/04/11 16:56:38;;;;;;;13.40;4.60;;;;;;;18.73;53.85;99616.52;109462;1253;71670;-88
2024/04/11 16:59:06;;;;;;;10.80;4.30;;;;;;;18.62;54.23;99618.05;109418;1253;73503;-89
2024/04/11 17:01:36;;;;;;;8.50;4.00;;;;;;;18.51;54.57;99620.73;109007;1254;72813;-88
2024/04/11 17:04:05;;;;;;;10.80;4.00;;;;;;;18.40;54.76;99619.98;109468;1254;59748;-89
2024/04/11 17:06:37;;;;;;;7.30;4.30;;;;;;;18.30;55.07;99619.54;109389;1254;60200;-89
2024/04/11 17:09:03;;;;;;;14.40;4.40;;;;;;;18.20;55.37;99620.61;109465;1254;72937;-88
2024/04/11 17:11:35;;;;;;;14.40;4.40;;;;;;;18.09;55.74;99620.34;109369;1254;61191;-88
2024/04/11 17:14:02;;;;;;;13.70;5.30;;;;;;;17.98;56.00;99620.83;109305;1254;72189;-87
2024/04/11 17:22:09;;;;;;;11.20;5.10;;;;;;;17.68;56.73;99619.98;109219;1252;73117;-88
2024/04/11 17:24:36;;;;;;;10.80;5.40;;;;;;;17.59;56.92;99620.33;109422;1254;59092;-87
2024/04/11 17:27:06;;;;;;;9.20;4.90;;;;;;;17.51;57.19;99626.57;109268;1253;58713;-88
2024/04/11 17:32:23;;;;;;;7.10;5.10;;;;;;;17.34;57.66;99625.88;106142;1254;61150;-89
2024/04/11 17:34:54;;;;;;;8.40;4.10;;;;;;;17.25;57.91;99623.85;105732;1253;73870;-89
2024/04/11 17:37:39;;;;;;;11.20;4.70;;;;;;;17.18;58.18;99628.08;106088;1260;72733;-89
2024/04/11 17:42:57;;;;;;;10.90;4.00;;;;;;;17.02;58.73;99631.84;107709;1259;60926;-89
2024/04/11 17:45:25;;;;;;;11.10;4.70;;;;;;;16.94;58.97;99634.38;106230;1254;61112;-90
2024/04/11 17:47:53;;;;;;;11.60;4.60;;;;;;;16.87;59.34;99636.89;106171;1257;72917;-87
2024/04/11 17:50:35;;;;;;;14.90;5.10;;;;;;;16.81;59.55;99642.20;105819;1254;61106;-89
2024/04/11 17:53:05;;;;;;;9.80;4.90;;;;;;;16.73;59.85;99641.74;105917;1254;73583;-89
2024/04/11 17:58:08;;;;;;;9.80;5.10;;;;;;;16.58;60.63;99644.13;105890;1258;61196;-90
2024/04/11 18:00:39;;;;;;;15.70;6.60;;;;;;;16.50;61.11;99649.25;106340;1254;72145;-89
2024/04/11 18:03:10;;;;;;;16.20;6.10;;;;;;;16.42;61.49;99649.27;106125;1259;74354;-88
2024/04/11 18:05:40;;;;;;;14.60;6.70;;;;;;;16.34;61.97;99656.20;105671;1258;72425;-89
2024/04/11 18:08:10;;;;;;;14.70;8.40;;;;;;;16.25;62.49;99659.52;106190;1257;61249;-84
2024/04/11 18:10:45;;;;;;;18.70;9.00;;;;;;;16.17;62.81;99664.09;107747;1259;61127;-89
2024/04/11 18:13:17;;;;;;;21.80;12.80;;;;;;;16.09;63.38;99666.09;106418;1254;72198;-88
2024/04/11 18:15:49;;;;;;;33.40;14.70;;;;;;;16.01;63.81;99669.41;105901;1254;75116;-90
2024/04/11 18:18:20;;;;;;;34.60;18.40;;;;;;;15.93;64.20;99672.15;105926;1254;72564;-91
2024/04/11 18:20:54;;;;;;;30.70;19.00;;;;;;;15.83;64.66;99670.84;105591;1260;61499;-89
2024/04/11 18:23:24;;;;;;;38.80;21.50;;;;;;;15.76;65.16;99675.29;106204;1254;61192;-88
2024/04/11 18:25:50;;;;;;;64.40;33.40;;;;;;;15.68;65.68;99673.54;105759;1256;73805;-90
2024/04/11 18:28:20;;;;;;;68.00;38.00;;;;;;;15.59;66.04;99672.90;105806;1254;61084;-89
2024/04/11 18:30:53;;;;;;;68.00;38.10;;;;;;;15.50;66.49;99673.69;105741;1258;72413;-90
2024/04/11 18:33:29;;;;;;;73.50;38.60;;;;;;;15.41;66.96;99673.73;106377;1259;61936;-89
2024/04/11 18:35:56;;;;;;;78.40;40.50;;;;;;;15.33;67.35;99673.61;105953;1253;61166;-91
2024/04/11 18:38:25;;;;;;;83.40;42.80;;;;;;;15.26;67.69;99673.38;106310;1254;71657;-92
2024/04/11 18:40:54;;;;;;;120.80;59.60;;;;;;;15.17;68.16;99671.02;107879;1254;73760;-88
2024/04/11 18:43:29;;;;;;;144.60;65.20;;;;;;;15.12;68.59;99672.48;108540;1254;72540;-88
2024/04/11 18:46:17;;;;;;;148.80;69.80;;;;;;;15.06;68.75;99672.73;107727;1257;61164;-90
2024/04/11 18:48:42;;;;;;;138.70;67.30;;;;;;;14.99;69.22;99671.58;106161;1254;61011;-92
2024/04/11 18:51:11;;;;;;;145.30;68.10;;;;;;;14.94;69.51;99671.02;105957;1259;73440;-90
2024/04/11 18:53:38;;;;;;;129.90;62.10;;;;;;;14.88;69.76;99670.52;105684;1257;74359;-91
2024/04/11 18:56:07;;;;;;;124.30;62.90;;;;;;;14.82;70.10;99674.84;105846;1259;72416;-90
2024/04/11 18:58:39;;;;;;;109.80;49.90;;;;;;;14.77;70.34;99675.55;105467;1260;62008;-90
2024/04/11 19:01:17;;;;;;;100.70;48.40;;;;;;;14.71;70.54;99678.49;106541;1255;61180;-92
2024/04/11 19:03:44;;;;;;;79.50;37.30;;;;;;;14.64;70.98;99680.92;105759;1257;74666;-90
2024/04/11 19:06:16;;;;;;;48.10;27.60;;;;;;;14.55;71.44;99680.39;105607;1256;74383;-88
2024/04/11 19:08:48;;;;;;;44.30;23.90;;;;;;;14.47;71.83;99683.23;105667;1257;73553;-91
2024/04/11 19:11:20;;;;;;;43.40;21.80;;;;;;;14.40;72.18;99681.52;105620;1262;61544;-90
2024/04/11 19:13:54;;;;;;;51.20;22.60;;;;;;;14.34;72.49;99679.25;105768;1256;61352;-91
2024/04/11 19:16:22;;;;;;;40.10;23.60;;;;;;;14.27;72.68;99681.08;106808;1255;74218;-90
2024/04/11 19:18:48;;;;;;;41.30;25.20;;;;;;;14.23;72.85;99685.89;105680;1262;75251;-90
2024/04/11 19:21:21;;;;;;;33.60;20.50;;;;;;;14.18;73.13;99686.34;105485;1257;61166;-88
2024/04/11 19:24:06;;;;;;;56.10;27.50;;;;;;;14.13;73.32;99686.32;105634;1256;61660;-90
2024/04/11 19:26:36;;;;;;;45.70;24.60;;;;;;;14.06;73.59;99684.57;105606;1257;61209;-89
2024/04/11 19:29:05;;;;;;;33.70;20.60;;;;;;;14.00;73.80;99684.96;105785;1257;74843;-89
2024/04/11 19:31:45;;;;;;;46.40;23.40;;;;;;;13.96;74.06;99685.55;105841;1254;74437;-90
2024/04/11 19:34:13;;;;;;;34.80;20.90;;;;;;;13.94;74.15;99686.58;106210;1254;72304;-91
2024/04/11 19:36:56;;;;;;;36.30;20.40;;;;;;;13.94;74.24;99686.27;106128;1254;61144;-91
2024/04/11 19:39:24;;;;;;;32.70;18.50;;;;;;;13.93;74.27;99684.86;106331;1254;61166;-88
2024/04/11 19:42:01;;;;;;;24.50;15.60;;;;;;;13.93;74.34;99681.64;106043;1254;75774;-90
2024/04/11 19:44:30;;;;;;;21.20;13.90;;;;;;;13.91;74.36;99679.96;106337;1254;74469;-91
2024/04/11 19:46:59;;;;;;;14.60;11.00;;;;;;;13.90;74.28;99675.86;106568;1254;72825;-90
2024/04/11 19:49:34;;;;;;;17.40;11.10;;;;;;;13.88;74.22;99676.87;106459;1259;61147;-88
2024/04/11 19:52:05;;;;;;;21.20;12.60;;;;;;;13.86;74.31;99678.28;106588;1254;61091;-88
2024/04/11 19:54:46;;;;;;;17.50;11.40;;;;;;;13.83;74.48;99678.11;106765;1254;73986;-92
2024/04/11 19:57:19;;;;;;;22.20;13.30;;;;;;;13.80;74.58;99674.19;106749;1260;74858;-91
2024/04/11 19:59:51;;;;;;;17.50;13.30;;;;;;;13.77;74.81;99673.44;106454;1254;73342;-88
2024/04/11 20:02:24;;;;;;;19.20;13.70;;;;;;;13.74;74.99;99671.27;106673;1254;61086;-90
2024/04/11 20:08:14;;;;;;;21.80;12.90;;;;;;;13.66;75.24;99669.83;108408;1256;73046;-92
2024/04/11 20:11:02;;;;;;;17.20;12.80;;;;;;;13.62;75.45;99671.88;107528;1257;74734;-90
2024/04/11 20:16:19;;;;;;;18.90;14.30;;;;;;;13.54;75.61;99670.53;106591;1256;61067;-91
2024/04/11 20:18:55;;;;;;;18.60;13.80;;;;;;;13.53;75.85;99672.41;106301;1255;61109;-89
2024/04/11 20:21:27;;;;;;;;;;;;;;;13.52;75.92;99672.29;106276;1256;73665;-90
2024/04/11 20:24:03;;;;;;;30.50;14.40;;;;;;;13.50;76.13;99673.13;106155;1257;76990;-90
2024/04/11 20:26:32;;;;;;;25.90;14.60;;;;;;;13.49;76.27;99670.86;106095;1262;72843;-92
2024/04/11 20:29:00;;;;;;;20.90;13.70;;;;;;;13.49;76.40;99671.20;105821;1255;62685;-92
2024/04/11 20:31:30;;;;;;;18.30;13.60;;;;;;;13.50;76.46;99672.59;105836;1257;61144;-89
2024/04/11 20:34:06;;;;;;;22.30;13.40;;;;;;;13.51;76.60;99672.87;106035;1257;75230;-91
2024/04/11 20:36:37;;;;;;;22.70;15.00;;;;;;;13.53;76.65;99680.14;106922;1257;74723;-91
2024/04/11 20:39:10;;;;;;;20.70;13.70;;;;;;;13.55;76.65;99675.70;106261;1257;71634;-88
2024/04/11 20:41:49;;;;;;;18.80;12.60;;;;;;;13.59;76.67;99683.37;106263;1263;61352;-91
2024/04/11 20:44:27;;;;;;;17.40;12.80;;;;;;;13.62;76.64;99681.77;106361;1255;61194;-90
2024/04/11 21:35:33;;;;;;;12.20;9.60;;;;;;;14.01;76.34;99702.56;108880;1252;71430;-91
2024/04/11 21:38:03;;;;;;;11.80;9.10;;;;;;;14.05;76.20;99701.60;108721;1253;61780;-91
2024/04/11 21:40:46;;;;;;;11.40;8.00;;;;;;;14.08;76.05;99701.40;109225;1253;61164;-90
2024/04/11 21:43:25;;;;;;;14.20;9.10;;;;;;;14.12;75.98;99703.11;109536;1253;74036;-90
2024/04/11 21:45:59;;;;;;;11.30;8.60;;;;;;;14.18;75.86;99710.50;109016;1254;74485;-89
2024/04/11 21:48:29;;;;;;;9.30;8.20;;;;;;;14.22;75.71;99715.98;108970;1253;72989;-91
2024/04/11 21:51:08;;;;;;;10.70;7.40;;;;;;;14.26;75.64;99716.27;109130;1252;58930;-89
2024/04/11 21:53:54;;;;;;;7.60;6.50;;;;;;;14.31;75.12;99720.84;108815;1252;62186;-89
2024/04/11 21:56:22;;;;;;;9.50;5.80;;;;;;;14.35;74.46;99717.15;109047;1253;73564;-91
2024/04/11 21:58:52;;;;;;;7.30;6.60;;;;;;;14.39;73.92;99718.36;109238;1254;74578;-91
2024/04/11 22:01:18;;;;;;;7.10;6.40;;;;;;;14.42;73.78;99721.91;108916;1254;72020;-87
2024/04/11 22:03:51;;;;;;;11.50;5.40;;;;;;;14.46;73.40;99723.48;108482;1253;61100;-91
2024/04/11 22:06:24;;;;;;;8.90;6.60;;;;;;;14.50;73.11;99726.68;108672;1258;60351;-90
2024/04/11 22:08:56;;;;;;;8.10;5.50;;;;;;;14.50;72.65;99727.92;109129;1254;71483;-91
2024/04/11 22:11:22;;;;;;;7.70;6.90;;;;;;;14.49;72.44;99727.45;109034;1253;59231;-91
2024/04/11 22:13:59;;;;;;;8.20;6.70;;;;;;;14.48;72.25;99725.38;109074;1252;71761;-91
2024/04/11 22:16:33;;;;;;;6.50;5.90;;;;;;;14.45;72.25;99725.90;109107;1254;62025;-88
2024/04/11 22:19:20;;;;;;;9.80;6.20;;;;;;;14.42;72.07;99727.52;109213;1253;61210;-90
2024/04/11 22:21:50;;;;;;;8.50;6.50;;;;;;;14.39;72.18;99728.98;109178;1254;73766;-89
2024/04/11 22:24:36;;;;;;;8.40;7.00;;;;;;;14.37;72.30;99732.35;109089;1252;73448;-91
2024/04/11 22:27:09;;;;;;;8.20;6.90;;;;;;;14.34;72.19;99733.25;109127;1252;72480;-89
2024/04/11 22:29:42;;;;;;;8.20;6.80;;;;;;;14.33;72.20;99734.41;109156;1252;60971;-90
2024/04/11 22:32:11;;;;;;;10.10;6.60;;;;;;;14.31;72.10;99738.53;109167;1253;61090;-90
2024/04/11 22:34:44;;;;;;;12.90;6.80;;;;;;;14.28;72.10;99741.41;109012;1254;73984;-90
2024/04/11 22:37:31;;;;;;;8.50;6.70;;;;;;;14.23;72.30;99741.33;109120;1254;74349;-91
2024/04/11 22:40:00;;;;;;;10.30;7.60;;;;;;;14.20;72.41;99744.95;109079;1253;72630;-90
2024/04/11 22:42:34;;;;;;;7.60;6.80;;;;;;;14.17;72.47;99746.79;109154;1253;61015;-90
2024/04/11 22:45:05;;;;;;;10.00;7.60;;;;;;;14.15;72.65;99747.09;109114;1252;61267;-89
2024/04/11 22:47:37;;;;;;;7.30;6.20;;;;;;;14.14;72.78;99749.86;109049;1253;72786;-90
2024/04/11 22:50:26;;;;;;;7.90;7.00;;;;;;;14.14;72.95;99751.86;109133;1253;73469;-89
2024/04/11 22:52:55;;;;;;;9.20;7.20;;;;;;;14.12;72.93;99753.39;109069;1253;70650;-91
2024/04/11 22:55:24;;;;;;;8.20;6.80;;;;;;;14.13;72.99;99757.49;108967;1253;61854;-89
2024/04/11 22:57:52;;;;;;;11.00;6.50;;;;;;;14.12;72.99;99752.49;108893;1253;58755;-90
2024/04/11 23:00:47;;;;;;;8.90;6.80;;;;;;;14.12;73.17;99755.56;109009;1254;74720;-90
2024/04/11 23:03:14;;;;;;;8.00;7.10;;;;;;;14.09;73.10;99751.39;109309;1253;73382;-89
2024/04/11 23:05:54;;;;;;;9.30;7.10;;;;;;;14.08;73.08;99753.42;109520;1253;72292;-89
2024/04/11 23:08:26;;;;;;;12.00;7.80;;;;;;;14.08;73.07;99751.80;109347;1253;59465;-89
2024/04/11 23:11:11;;;;;;;8.30;7.40;;;;;;;14.07;73.08;99752.57;109066;1253;58740;-91
2024/04/11 23:13:39;;;;;;;8.20;7.40;;;;;;;14.07;73.13;99748.98;109259;1253;72815;-89
2024/04/11 23:16:11;;;;;;;7.40;6.70;;;;;;;14.07;73.13;99747.20;109110;1254;73860;-89
2024/04/11 23:18:51;;;;;;;7.90;7.20;;;;;;;14.07;73.08;99748.26;109051;1253;72801;-89
2024/04/11 23:21:26;;;;;;;8.50;7.40;;;;;;;14.07;73.06;99748.85;108994;1253;61285;-90
2024/04/11 23:23:58;;;;;;;8.90;6.70;;;;;;;14.04;72.92;99744.85;108782;1252;61026;-91
2024/04/11 23:26:32;;;;;;;8.00;7.20;;;;;;;14.02;72.82;99744.79;109143;1253;73496;-90
2024/04/11 23:29:08;;;;;;;7.20;6.50;;;;;;;14.00;72.67;99744.90;109261;1252;73384;-89
2024/04/11 23:31:46;;;;;;;6.90;6.00;;;;;;;13.99;72.56;99746.27;109471;1253;71813;-88
2024/04/11 23:34:13;;;;;;;7.40;6.70;;;;;;;13.99;72.45;99742.84;109190;1253;60981;-89
2024/04/11 23:36:40;;;;;;;11.20;8.70;;;;;;;13.99;72.48;99740.31;108969;1253;58748;-88
2024/04/11 23:39:10;;;;;;;10.40;6.90;;;;;;;14.00;72.51;99739.55;109114;1253;73084;-89
2024/04/11 23:41:49;;;;;;;9.30;5.80;;;;;;;14.01;72.63;99740.95;108956;1252;73402;-90
2024/04/11 23:44:26;;;;;;;7.50;6.40;;;;;;;14.02;72.37;99739.23;109083;1253;71778;-89
2024/04/11 23:47:00;;;;;;;7.70;6.60;;;;;;;14.03;72.58;99739.34;109444;1254;60414;-90
2024/04/11 23:49:45;;;;;;;8.60;6.60;;;;;;;14.05;72.60;99737.58;109286;1253;60603;-90
2024/04/11 23:52:12;;;;;;;8.70;6.90;;;;;;;14.08;72.43;99739.76;109467;1253;74753;-90
2024/04/11 23:54:42;;;;;;;12.40;7.30;;;;;;;14.09;72.19;99733.22;109473;1253;72599;-90
2024/04/11 23:57:08;;;;;;;8.40;6.30;;;;;;;14.09;72.26;99738.63;109360;1253;74801;-88
2024/04/11 23:59:37;;;;;;;8.20;6.50;;;;;;;14.08;72.29;99737.05;109179;1254;61781;-90
